sensor_id;sensor_type;location;lat;lon;timestamp;temperature;humidity
26541;DHT22;14206;50.202;10.948;2022-07-06T00:01:28;20.50;62.00
26541;DHT22;14206;50.202;10.948;2022-07-06T00:03:54;20.50;61.80
26541;DHT22;14206;50.202;10.948;2022-07-06T00:06:22;20.50;61.00
26541;DHT22;14206;50.202;10.948;2022-07-06T00:08:49;20.50;61.70
26541;DHT22;14206;50.202;10.948;2022-07-06T00:11:16;20.50;63.00
26541;DHT22;14206;50.202;10.948;2022-07-06T00:13:43;20.50;62.90
26541;DHT22;14206;50.202;10.948;2022-07-06T00:16:10;20.50;62.90
26541;DHT22;14206;50.202;10.948;2022-07-06T00:18:37;20.40;62.40
26541;DHT22;14206;50.202;10.948;2022-07-06T00:21:03;20.40;63.60
26541;DHT22;14206;50.202;10.948;2022-07-06T00:23:30;20.40;63.60
26541;DHT22;14206;50.202;10.948;2022-07-06T00:25:57;20.40;62.90
26541;DHT22;14206;50.202;10.948;2022-07-06T00:28:24;20.40;62.70
26541;DHT22;14206;50.202;10.948;2022-07-06T00:30:52;20.30;62.40
26541;DHT22;14206;50.202;10.948;2022-07-06T00:33:19;20.30;62.50
26541;DHT22;14206;50.202;10.948;2022-07-06T00:35:46;20.30;62.70
26541;DHT22;14206;50.202;10.948;2022-07-06T00:38:20;20.20;63.50
26541;DHT22;14206;50.202;10.948;2022-07-06T00:40:47;20.20;63.40
26541;DHT22;14206;50.202;10.948;2022-07-06T00:43:14;20.10;63.10
26541;DHT22;14206;50.202;10.948;2022-07-06T00:45:41;20.10;63.10
26541;DHT22;14206;50.202;10.948;2022-07-06T00:48:11;20.00;63.60
26541;DHT22;14206;50.202;10.948;2022-07-06T00:50:38;19.90;63.90
26541;DHT22;14206;50.202;10.948;2022-07-06T00:53:06;19.80;63.40
26541;DHT22;14206;50.202;10.948;2022-07-06T00:55:35;19.80;63.80
26541;DHT22;14206;50.202;10.948;2022-07-06T00:58:03;19.70;63.80
26541;DHT22;14206;50.202;10.948;2022-07-06T01:00:31;19.70;63.70
26541;DHT22;14206;50.202;10.948;2022-07-06T01:02:58;19.70;63.20
26541;DHT22;14206;50.202;10.948;2022-07-06T01:05:31;19.70;64.70
26541;DHT22;14206;50.202;10.948;2022-07-06T01:07:58;19.50;65.90
26541;DHT22;14206;50.202;10.948;2022-07-06T01:10:27;19.40;67.40
26541;DHT22;14206;50.202;10.948;2022-07-06T01:12:54;19.40;67.00
26541;DHT22;14206;50.202;10.948;2022-07-06T01:15:22;19.30;65.70
26541;DHT22;14206;50.202;10.948;2022-07-06T01:17:51;19.30;67.40
26541;DHT22;14206;50.202;10.948;2022-07-06T01:20:24;19.30;67.70
26541;DHT22;14206;50.202;10.948;2022-07-06T01:22:52;19.30;66.90
26541;DHT22;14206;50.202;10.948;2022-07-06T01:25:19;19.20;68.30
26541;DHT22;14206;50.202;10.948;2022-07-06T01:27:47;19.20;69.00
26541;DHT22;14206;50.202;10.948;2022-07-06T01:30:15;19.10;68.90
26541;DHT22;14206;50.202;10.948;2022-07-06T01:32:42;19.10;68.80
26541;DHT22;14206;50.202;10.948;2022-07-06T01:35:10;19.10;68.50
26541;DHT22;14206;50.202;10.948;2022-07-06T01:37:37;19.10;69.70
26541;DHT22;14206;50.202;10.948;2022-07-06T01:40:06;19.00;68.70
26541;DHT22;14206;50.202;10.948;2022-07-06T01:42:33;19.00;69.90
26541;DHT22;14206;50.202;10.948;2022-07-06T01:45:01;18.90;69.20
26541;DHT22;14206;50.202;10.948;2022-07-06T01:47:28;18.90;69.20
26541;DHT22;14206;50.202;10.948;2022-07-06T01:49:59;18.90;70.00
26541;DHT22;14206;50.202;10.948;2022-07-06T01:52:28;18.90;69.20
26541;DHT22;14206;50.202;10.948;2022-07-06T01:54:55;18.80;68.60
26541;DHT22;14206;50.202;10.948;2022-07-06T01:57:23;18.80;68.10
26541;DHT22;14206;50.202;10.948;2022-07-06T01:59:50;18.70;68.00
26541;DHT22;14206;50.202;10.948;2022-07-06T02:02:18;18.60;67.80
26541;DHT22;14206;50.202;10.948;2022-07-06T02:04:45;18.50;69.00
26541;DHT22;14206;50.202;10.948;2022-07-06T02:07:12;18.40;69.00
26541;DHT22;14206;50.202;10.948;2022-07-06T02:09:39;18.40;69.80
26541;DHT22;14206;50.202;10.948;2022-07-06T02:12:06;18.30;70.40
26541;DHT22;14206;50.202;10.948;2022-07-06T02:14:34;18.30;69.90
26541;DHT22;14206;50.202;10.948;2022-07-06T02:17:02;18.20;69.80
26541;DHT22;14206;50.202;10.948;2022-07-06T02:19:29;18.10;69.80
26541;DHT22;14206;50.202;10.948;2022-07-06T02:21:56;18.00;70.20
26541;DHT22;14206;50.202;10.948;2022-07-06T02:24:23;18.00;71.10
26541;DHT22;14206;50.202;10.948;2022-07-06T02:26:50;17.90;71.50
26541;DHT22;14206;50.202;10.948;2022-07-06T02:29:17;17.80;72.60
26541;DHT22;14206;50.202;10.948;2022-07-06T02:31:44;17.60;72.90
26541;DHT22;14206;50.202;10.948;2022-07-06T02:34:12;17.50;73.10
26541;DHT22;14206;50.202;10.948;2022-07-06T02:36:38;17.40;73.90
26541;DHT22;14206;50.202;10.948;2022-07-06T02:39:05;17.40;74.00
26541;DHT22;14206;50.202;10.948;2022-07-06T02:41:32;17.40;74.10
26541;DHT22;14206;50.202;10.948;2022-07-06T02:43:59;17.40;74.30
26541;DHT22;14206;50.202;10.948;2022-07-06T02:46:26;17.30;74.30
26541;DHT22;14206;50.202;10.948;2022-07-06T02:48:53;17.30;74.50
26541;DHT22;14206;50.202;10.948;2022-07-06T02:51:20;17.30;75.10
26541;DHT22;14206;50.202;10.948;2022-07-06T02:53:47;17.20;74.20
26541;DHT22;14206;50.202;10.948;2022-07-06T02:56:14;17.30;75.40
26541;DHT22;14206;50.202;10.948;2022-07-06T02:58:41;17.20;74.90
26541;DHT22;14206;50.202;10.948;2022-07-06T03:01:08;17.20;75.20
26541;DHT22;14206;50.202;10.948;2022-07-06T03:03:35;17.10;74.70
26541;DHT22;14206;50.202;10.948;2022-07-06T03:06:03;17.10;75.30
26541;DHT22;14206;50.202;10.948;2022-07-06T03:08:31;17.00;74.80
26541;DHT22;14206;50.202;10.948;2022-07-06T03:10:59;17.00;76.10
26541;DHT22;14206;50.202;10.948;2022-07-06T03:13:36;17.00;75.90
26541;DHT22;14206;50.202;10.948;2022-07-06T03:16:03;17.00;75.90
26541;DHT22;14206;50.202;10.948;2022-07-06T03:18:30;17.00;76.90
26541;DHT22;14206;50.202;10.948;2022-07-06T03:20:58;16.90;76.10
26541;DHT22;14206;50.202;10.948;2022-07-06T03:23:25;16.90;76.30
26541;DHT22;14206;50.202;10.948;2022-07-06T03:25:52;16.80;76.70
26541;DHT22;14206;50.202;10.948;2022-07-06T03:28:18;16.70;77.40
26541;DHT22;14206;50.202;10.948;2022-07-06T03:30:46;16.70;76.70
26541;DHT22;14206;50.202;10.948;2022-07-06T03:33:13;16.70;77.90
26541;DHT22;14206;50.202;10.948;2022-07-06T03:35:40;16.70;77.70
26541;DHT22;14206;50.202;10.948;2022-07-06T03:38:08;16.70;77.30
26541;DHT22;14206;50.202;10.948;2022-07-06T03:40:37;16.70;76.70
26541;DHT22;14206;50.202;10.948;2022-07-06T03:43:04;16.70;76.10
26541;DHT22;14206;50.202;10.948;2022-07-06T03:45:35;16.60;76.10
26541;DHT22;14206;50.202;10.948;2022-07-06T03:48:03;16.60;75.20
26541;DHT22;14206;50.202;10.948;2022-07-06T03:50:32;16.50;75.40
26541;DHT22;14206;50.202;10.948;2022-07-06T03:52:59;16.50;75.10
26541;DHT22;14206;50.202;10.948;2022-07-06T03:55:27;16.40;75.60
26541;DHT22;14206;50.202;10.948;2022-07-06T03:57:58;16.40;75.60
26541;DHT22;14206;50.202;10.948;2022-07-06T04:00:32;16.30;75.90
26541;DHT22;14206;50.202;10.948;2022-07-06T04:03:05;16.20;75.80
26541;DHT22;14206;50.202;10.948;2022-07-06T04:05:40;16.20;76.00
26541;DHT22;14206;50.202;10.948;2022-07-06T04:08:07;16.30;75.40
26541;DHT22;14206;50.202;10.948;2022-07-06T04:10:42;16.40;75.30
26541;DHT22;14206;50.202;10.948;2022-07-06T04:13:10;16.50;76.30
26541;DHT22;14206;50.202;10.948;2022-07-06T04:15:37;16.70;75.40
26541;DHT22;14206;50.202;10.948;2022-07-06T04:18:05;16.80;74.80
26541;DHT22;14206;50.202;10.948;2022-07-06T04:20:38;17.00;74.50
26541;DHT22;14206;50.202;10.948;2022-07-06T04:23:05;17.10;74.60
26541;DHT22;14206;50.202;10.948;2022-07-06T04:25:32;17.20;74.50
26541;DHT22;14206;50.202;10.948;2022-07-06T04:28:01;17.30;75.80
26541;DHT22;14206;50.202;10.948;2022-07-06T04:30:29;17.30;73.10
26541;DHT22;14206;50.202;10.948;2022-07-06T04:32:56;17.40;73.40
26541;DHT22;14206;50.202;10.948;2022-07-06T04:35:26;17.50;73.60
26541;DHT22;14206;50.202;10.948;2022-07-06T04:37:54;17.70;72.90
26541;DHT22;14206;50.202;10.948;2022-07-06T04:40:22;17.90;72.90
26541;DHT22;14206;50.202;10.948;2022-07-06T04:42:52;18.00;72.30
26541;DHT22;14206;50.202;10.948;2022-07-06T04:45:20;18.10;71.30
26541;DHT22;14206;50.202;10.948;2022-07-06T04:47:47;18.20;71.60
26541;DHT22;14206;50.202;10.948;2022-07-06T04:50:14;18.40;70.80
26541;DHT22;14206;50.202;10.948;2022-07-06T04:52:42;18.50;70.10
26541;DHT22;14206;50.202;10.948;2022-07-06T04:55:10;18.50;71.20
26541;DHT22;14206;50.202;10.948;2022-07-06T04:57:37;18.40;71.80
26541;DHT22;14206;50.202;10.948;2022-07-06T05:00:04;18.30;71.70
26541;DHT22;14206;50.202;10.948;2022-07-06T05:02:33;18.30;70.90
26541;DHT22;14206;50.202;10.948;2022-07-06T05:04:59;18.20;72.00
26541;DHT22;14206;50.202;10.948;2022-07-06T05:07:27;18.10;71.60
26541;DHT22;14206;50.202;10.948;2022-07-06T05:09:56;18.10;71.50
26541;DHT22;14206;50.202;10.948;2022-07-06T05:12:23;18.10;71.40
26541;DHT22;14206;50.202;10.948;2022-07-06T05:14:50;18.20;72.00
26541;DHT22;14206;50.202;10.948;2022-07-06T05:17:19;18.10;73.20
26541;DHT22;14206;50.202;10.948;2022-07-06T05:19:53;18.20;73.10
26541;DHT22;14206;50.202;10.948;2022-07-06T05:22:20;18.20;73.10
26541;DHT22;14206;50.202;10.948;2022-07-06T05:24:47;18.40;71.90
26541;DHT22;14206;50.202;10.948;2022-07-06T05:27:14;18.50;70.60
26541;DHT22;14206;50.202;10.948;2022-07-06T05:29:41;18.60;71.00
26541;DHT22;14206;50.202;10.948;2022-07-06T05:32:08;18.80;69.30
26541;DHT22;14206;50.202;10.948;2022-07-06T05:34:35;19.00;69.20
26541;DHT22;14206;50.202;10.948;2022-07-06T05:37:03;19.20;68.10
26541;DHT22;14206;50.202;10.948;2022-07-06T05:39:30;19.40;68.00
26541;DHT22;14206;50.202;10.948;2022-07-06T05:41:57;19.50;67.20
26541;DHT22;14206;50.202;10.948;2022-07-06T05:44:24;19.70;66.60
26541;DHT22;14206;50.202;10.948;2022-07-06T05:46:51;19.90;65.60
26541;DHT22;14206;50.202;10.948;2022-07-06T05:49:18;20.10;64.90
26541;DHT22;14206;50.202;10.948;2022-07-06T05:52:04;20.30;64.80
26541;DHT22;14206;50.202;10.948;2022-07-06T05:54:31;20.50;63.60
26541;DHT22;14206;50.202;10.948;2022-07-06T05:56:58;20.50;63.70
26541;DHT22;14206;50.202;10.948;2022-07-06T05:59:25;20.60;64.10
26541;DHT22;14206;50.202;10.948;2022-07-06T06:01:52;20.50;65.40
26541;DHT22;14206;50.202;10.948;2022-07-06T06:04:22;20.60;65.60
26541;DHT22;14206;50.202;10.948;2022-07-06T06:06:49;20.50;65.60
26541;DHT22;14206;50.202;10.948;2022-07-06T06:09:16;20.40;66.40
26541;DHT22;14206;50.202;10.948;2022-07-06T06:11:44;20.50;66.40
26541;DHT22;14206;50.202;10.948;2022-07-06T06:14:11;20.60;65.00
26541;DHT22;14206;50.202;10.948;2022-07-06T06:16:38;20.70;66.10
26541;DHT22;14206;50.202;10.948;2022-07-06T06:19:05;20.60;65.70
26541;DHT22;14206;50.202;10.948;2022-07-06T06:21:32;20.60;65.20
26541;DHT22;14206;50.202;10.948;2022-07-06T06:23:58;21.30;64.30
26541;DHT22;14206;50.202;10.948;2022-07-06T06:26:25;21.80;63.30
26541;DHT22;14206;50.202;10.948;2022-07-06T06:28:52;22.00;61.40
26541;DHT22;14206;50.202;10.948;2022-07-06T06:31:19;22.40;61.80
26541;DHT22;14206;50.202;10.948;2022-07-06T06:33:46;22.40;61.60
26541;DHT22;14206;50.202;10.948;2022-07-06T06:36:13;22.50;60.70
26541;DHT22;14206;50.202;10.948;2022-07-06T06:38:40;22.90;60.40
26541;DHT22;14206;50.202;10.948;2022-07-06T06:41:07;23.00;60.50
26541;DHT22;14206;50.202;10.948;2022-07-06T06:43:34;23.80;58.50
26541;DHT22;14206;50.202;10.948;2022-07-06T06:46:07;24.10;57.90
26541;DHT22;14206;50.202;10.948;2022-07-06T06:48:34;25.40;54.40
26541;DHT22;14206;50.202;10.948;2022-07-06T06:51:01;25.90;53.90
26541;DHT22;14206;50.202;10.948;2022-07-06T06:53:28;26.20;54.50
26541;DHT22;14206;50.202;10.948;2022-07-06T06:55:55;27.60;50.30
26541;DHT22;14206;50.202;10.948;2022-07-06T06:58:21;28.30;48.20
26541;DHT22;14206;50.202;10.948;2022-07-06T07:00:49;28.60;46.90
26541;DHT22;14206;50.202;10.948;2022-07-06T07:03:16;29.40;45.30
26541;DHT22;14206;50.202;10.948;2022-07-06T07:05:43;29.50;45.00
26541;DHT22;14206;50.202;10.948;2022-07-06T07:08:09;29.70;44.80
26541;DHT22;14206;50.202;10.948;2022-07-06T07:10:36;30.90;43.80
26541;DHT22;14206;50.202;10.948;2022-07-06T07:13:03;31.10;43.50
26541;DHT22;14206;50.202;10.948;2022-07-06T07:15:30;31.60;41.10
26541;DHT22;14206;50.202;10.948;2022-07-06T07:17:57;31.90;41.40
26541;DHT22;14206;50.202;10.948;2022-07-06T07:20:24;31.70;41.60
26541;DHT22;14206;50.202;10.948;2022-07-06T07:22:52;32.50;39.90
26541;DHT22;14206;50.202;10.948;2022-07-06T07:25:19;33.30;40.20
26541;DHT22;14206;50.202;10.948;2022-07-06T07:27:46;33.20;38.60
26541;DHT22;14206;50.202;10.948;2022-07-06T07:30:13;33.00;38.20
26541;DHT22;14206;50.202;10.948;2022-07-06T07:32:40;34.00;36.80
26541;DHT22;14206;50.202;10.948;2022-07-06T07:35:07;34.40;36.40
26541;DHT22;14206;50.202;10.948;2022-07-06T07:37:34;34.70;37.70
26541;DHT22;14206;50.202;10.948;2022-07-06T07:40:01;34.80;35.50
26541;DHT22;14206;50.202;10.948;2022-07-06T07:42:29;34.10;36.10
26541;DHT22;14206;50.202;10.948;2022-07-06T07:44:56;34.60;37.20
26541;DHT22;14206;50.202;10.948;2022-07-06T07:47:22;34.10;38.00
26541;DHT22;14206;50.202;10.948;2022-07-06T07:49:49;33.20;37.80
26541;DHT22;14206;50.202;10.948;2022-07-06T07:52:16;33.70;38.70
26541;DHT22;14206;50.202;10.948;2022-07-06T07:54:43;33.30;38.90
26541;DHT22;14206;50.202;10.948;2022-07-06T07:57:16;32.30;40.30
26541;DHT22;14206;50.202;10.948;2022-07-06T07:59:43;33.00;39.30
26541;DHT22;14206;50.202;10.948;2022-07-06T08:02:10;33.90;37.70
26541;DHT22;14206;50.202;10.948;2022-07-06T08:04:37;35.00;35.90
26541;DHT22;14206;50.202;10.948;2022-07-06T08:07:04;36.00;35.60
26541;DHT22;14206;50.202;10.948;2022-07-06T08:09:31;37.20;33.50
26541;DHT22;14206;50.202;10.948;2022-07-06T08:11:58;38.30;32.90
26541;DHT22;14206;50.202;10.948;2022-07-06T08:14:25;38.40;32.60
26541;DHT22;14206;50.202;10.948;2022-07-06T08:16:52;37.40;33.50
26541;DHT22;14206;50.202;10.948;2022-07-06T08:19:19;35.90;33.50
26541;DHT22;14206;50.202;10.948;2022-07-06T08:21:45;34.70;35.40
26541;DHT22;14206;50.202;10.948;2022-07-06T08:24:12;34.20;36.80
26541;DHT22;14206;50.202;10.948;2022-07-06T08:26:39;34.70;38.10
26541;DHT22;14206;50.202;10.948;2022-07-06T08:29:06;36.00;36.40
26541;DHT22;14206;50.202;10.948;2022-07-06T08:31:33;37.10;34.90
26541;DHT22;14206;50.202;10.948;2022-07-06T08:34:21;38.10;33.90
26541;DHT22;14206;50.202;10.948;2022-07-06T08:36:48;38.50;32.90
26541;DHT22;14206;50.202;10.948;2022-07-06T08:39:15;39.10;32.50
26541;DHT22;14206;50.202;10.948;2022-07-06T08:41:42;39.00;31.10
26541;DHT22;14206;50.202;10.948;2022-07-06T08:44:11;39.00;31.70
26541;DHT22;14206;50.202;10.948;2022-07-06T08:46:38;39.60;31.30
26541;DHT22;14206;50.202;10.948;2022-07-06T08:49:06;39.90;30.90
26541;DHT22;14206;50.202;10.948;2022-07-06T08:51:36;40.20;31.10
26541;DHT22;14206;50.202;10.948;2022-07-06T08:54:03;40.30;29.80
26541;DHT22;14206;50.202;10.948;2022-07-06T08:56:31;39.40;30.20
26541;DHT22;14206;50.202;10.948;2022-07-06T08:58:58;39.60;31.00
26541;DHT22;14206;50.202;10.948;2022-07-06T09:01:26;40.00;30.10
26541;DHT22;14206;50.202;10.948;2022-07-06T09:03:54;38.50;29.90
26541;DHT22;14206;50.202;10.948;2022-07-06T09:06:24;37.80;32.20
26541;DHT22;14206;50.202;10.948;2022-07-06T09:08:53;38.90;31.30
26541;DHT22;14206;50.202;10.948;2022-07-06T09:11:21;40.20;30.30
26541;DHT22;14206;50.202;10.948;2022-07-06T09:13:48;39.70;31.10
26541;DHT22;14206;50.202;10.948;2022-07-06T09:16:15;38.20;32.00
26541;DHT22;14206;50.202;10.948;2022-07-06T09:19:02;37.70;33.60
26541;DHT22;14206;50.202;10.948;2022-07-06T09:21:31;38.30;32.80
26541;DHT22;14206;50.202;10.948;2022-07-06T09:24:08;39.50;30.60
26541;DHT22;14206;50.202;10.948;2022-07-06T09:26:36;39.40;31.20
26541;DHT22;14206;50.202;10.948;2022-07-06T09:29:04;39.40;30.90
26541;DHT22;14206;50.202;10.948;2022-07-06T09:31:31;38.00;32.10
26541;DHT22;14206;50.202;10.948;2022-07-06T09:33:59;37.30;32.20
26541;DHT22;14206;50.202;10.948;2022-07-06T09:41:44;34.40;35.50
26541;DHT22;14206;50.202;10.948;2022-07-06T09:44:12;34.70;37.70
26541;DHT22;14206;50.202;10.948;2022-07-06T09:46:42;35.60;37.60
26541;DHT22;14206;50.202;10.948;2022-07-06T09:49:10;36.80;33.20
26541;DHT22;14206;50.202;10.948;2022-07-06T09:51:37;37.90;32.30
26541;DHT22;14206;50.202;10.948;2022-07-06T09:54:07;38.10;30.70
26541;DHT22;14206;50.202;10.948;2022-07-06T09:56:38;36.50;32.90
26541;DHT22;14206;50.202;10.948;2022-07-06T09:59:09;35.40;34.10
26541;DHT22;14206;50.202;10.948;2022-07-06T10:01:38;34.00;35.90
26541;DHT22;14206;50.202;10.948;2022-07-06T10:04:08;34.30;36.30
26541;DHT22;14206;50.202;10.948;2022-07-06T10:06:36;36.10;35.10
26541;DHT22;14206;50.202;10.948;2022-07-06T10:09:04;37.40;31.40
26541;DHT22;14206;50.202;10.948;2022-07-06T10:11:49;38.50;30.40
26541;DHT22;14206;50.202;10.948;2022-07-06T10:14:23;39.50;29.50
26541;DHT22;14206;50.202;10.948;2022-07-06T10:16:51;40.40;28.60
26541;DHT22;14206;50.202;10.948;2022-07-06T10:19:19;40.20;28.40
26541;DHT22;14206;50.202;10.948;2022-07-06T10:21:46;39.10;28.10
26541;DHT22;14206;50.202;10.948;2022-07-06T10:24:13;36.90;30.90
26541;DHT22;14206;50.202;10.948;2022-07-06T10:26:41;36.50;30.40
26541;DHT22;14206;50.202;10.948;2022-07-06T10:29:08;37.70;29.50
26541;DHT22;14206;50.202;10.948;2022-07-06T10:31:36;38.60;29.40
26541;DHT22;14206;50.202;10.948;2022-07-06T10:34:05;38.20;29.60
26541;DHT22;14206;50.202;10.948;2022-07-06T10:36:36;36.90;30.70
26541;DHT22;14206;50.202;10.948;2022-07-06T10:39:06;37.80;29.80
26541;DHT22;14206;50.202;10.948;2022-07-06T10:41:51;38.60;30.00
26541;DHT22;14206;50.202;10.948;2022-07-06T10:44:23;38.20;30.60
26541;DHT22;14206;50.202;10.948;2022-07-06T10:46:53;39.10;29.00
26541;DHT22;14206;50.202;10.948;2022-07-06T10:49:21;40.10;27.60
26541;DHT22;14206;50.202;10.948;2022-07-06T10:52:08;40.70;27.70
26541;DHT22;14206;50.202;10.948;2022-07-06T10:54:38;41.30;27.40
26541;DHT22;14206;50.202;10.948;2022-07-06T10:57:09;41.20;28.10
26541;DHT22;14206;50.202;10.948;2022-07-06T10:59:37;41.60;24.90
26541;DHT22;14206;50.202;10.948;2022-07-06T11:02:17;42.10;25.30
26541;DHT22;14206;50.202;10.948;2022-07-06T11:04:48;42.20;27.00
26541;DHT22;14206;50.202;10.948;2022-07-06T11:07:18;41.20;27.50
26541;DHT22;14206;50.202;10.948;2022-07-06T11:09:56;41.80;26.80
26541;DHT22;14206;50.202;10.948;2022-07-06T11:12:23;42.80;26.70
26541;DHT22;14206;50.202;10.948;2022-07-06T11:14:51;43.80;24.80
26541;DHT22;14206;50.202;10.948;2022-07-06T11:17:18;44.40;25.40
26541;DHT22;14206;50.202;10.948;2022-07-06T11:19:56;44.30;23.70
26541;DHT22;14206;50.202;10.948;2022-07-06T11:22:23;44.20;23.80
26541;DHT22;14206;50.202;10.948;2022-07-06T11:24:52;43.90;23.60
26541;DHT22;14206;50.202;10.948;2022-07-06T11:27:22;44.10;23.50
26541;DHT22;14206;50.202;10.948;2022-07-06T11:29:49;44.40;23.00
26541;DHT22;14206;50.202;10.948;2022-07-06T11:32:16;44.50;24.40
26541;DHT22;14206;50.202;10.948;2022-07-06T11:34:49;44.20;22.90
26541;DHT22;14206;50.202;10.948;2022-07-06T11:37:16;43.20;24.80
26541;DHT22;14206;50.202;10.948;2022-07-06T11:39:44;41.50;25.20
26541;DHT22;14206;50.202;10.948;2022-07-06T11:42:12;41.60;25.30
26541;DHT22;14206;50.202;10.948;2022-07-06T11:44:40;41.70;26.40
26541;DHT22;14206;50.202;10.948;2022-07-06T11:47:07;42.20;24.60
26541;DHT22;14206;50.202;10.948;2022-07-06T11:49:35;42.70;24.50
26541;DHT22;14206;50.202;10.948;2022-07-06T11:52:08;43.20;25.00
26541;DHT22;14206;50.202;10.948;2022-07-06T11:54:37;42.50;25.90
26541;DHT22;14206;50.202;10.948;2022-07-06T11:57:06;40.60;26.10
26541;DHT22;14206;50.202;10.948;2022-07-06T11:59:34;39.10;27.50
26541;DHT22;14206;50.202;10.948;2022-07-06T12:02:11;38.10;29.40
26541;DHT22;14206;50.202;10.948;2022-07-06T12:04:40;38.90;27.10
26541;DHT22;14206;50.202;10.948;2022-07-06T12:07:08;39.70;26.80
26541;DHT22;14206;50.202;10.948;2022-07-06T12:09:36;40.30;28.70
26541;DHT22;14206;50.202;10.948;2022-07-06T12:12:04;40.50;27.70
26541;DHT22;14206;50.202;10.948;2022-07-06T12:14:31;40.80;26.20
26541;DHT22;14206;50.202;10.948;2022-07-06T12:17:09;41.00;27.00
26541;DHT22;14206;50.202;10.948;2022-07-06T12:19:36;41.50;26.20
26541;DHT22;14206;50.202;10.948;2022-07-06T12:22:04;42.20;25.30
26541;DHT22;14206;50.202;10.948;2022-07-06T12:24:33;42.70;24.10
26541;DHT22;14206;50.202;10.948;2022-07-06T12:27:10;42.50;25.60
26541;DHT22;14206;50.202;10.948;2022-07-06T12:29:37;42.20;25.60
26541;DHT22;14206;50.202;10.948;2022-07-06T12:32:04;42.00;25.80
26541;DHT22;14206;50.202;10.948;2022-07-06T12:34:32;41.40;25.20
26541;DHT22;14206;50.202;10.948;2022-07-06T12:37:05;41.40;25.60
26541;DHT22;14206;50.202;10.948;2022-07-06T12:39:40;40.80;25.60
26541;DHT22;14206;50.202;10.948;2022-07-06T12:42:07;39.50;27.90
26541;DHT22;14206;50.202;10.948;2022-07-06T12:44:47;38.20;28.30
26541;DHT22;14206;50.202;10.948;2022-07-06T12:47:16;37.20;30.20
26541;DHT22;14206;50.202;10.948;2022-07-06T12:49:44;36.10;31.30
26541;DHT22;14206;50.202;10.948;2022-07-06T12:52:13;35.00;30.70
26541;DHT22;14206;50.202;10.948;2022-07-06T12:57:12;33.40;33.20
26541;DHT22;14206;50.202;10.948;2022-07-06T12:59:40;32.60;33.90
26541;DHT22;14206;50.202;10.948;2022-07-06T13:02:09;32.10;35.50
26541;DHT22;14206;50.202;10.948;2022-07-06T13:04:36;31.60;34.60
26541;DHT22;14206;50.202;10.948;2022-07-06T13:07:03;31.20;34.20
26541;DHT22;14206;50.202;10.948;2022-07-06T13:09:34;30.80;36.30
26541;DHT22;14206;50.202;10.948;2022-07-06T13:12:01;30.30;36.10
26541;DHT22;14206;50.202;10.948;2022-07-06T13:14:28;30.20;37.10
26541;DHT22;14206;50.202;10.948;2022-07-06T13:16:54;30.20;37.00
26541;DHT22;14206;50.202;10.948;2022-07-06T13:19:22;30.10;36.30
26541;DHT22;14206;50.202;10.948;2022-07-06T13:21:48;30.00;37.30
26541;DHT22;14206;50.202;10.948;2022-07-06T13:24:16;29.80;36.40
26541;DHT22;14206;50.202;10.948;2022-07-06T13:26:43;29.70;37.80
26541;DHT22;14206;50.202;10.948;2022-07-06T13:29:10;29.70;37.00
26541;DHT22;14206;50.202;10.948;2022-07-06T13:31:38;29.70;37.90
26541;DHT22;14206;50.202;10.948;2022-07-06T13:34:06;29.80;38.40
26541;DHT22;14206;50.202;10.948;2022-07-06T13:36:33;29.50;37.80
26541;DHT22;14206;50.202;10.948;2022-07-06T13:39:00;29.30;38.10
26541;DHT22;14206;50.202;10.948;2022-07-06T13:41:27;29.10;38.20
26541;DHT22;14206;50.202;10.948;2022-07-06T13:43:54;29.10;36.80
26541;DHT22;14206;50.202;10.948;2022-07-06T13:46:21;29.00;36.90
26541;DHT22;14206;50.202;10.948;2022-07-06T13:48:48;28.70;37.90
26541;DHT22;14206;50.202;10.948;2022-07-06T13:51:15;28.50;36.90
26541;DHT22;14206;50.202;10.948;2022-07-06T13:53:42;28.30;38.70
26541;DHT22;14206;50.202;10.948;2022-07-06T13:56:10;28.20;38.30
26541;DHT22;14206;50.202;10.948;2022-07-06T13:58:37;28.10;40.10
26541;DHT22;14206;50.202;10.948;2022-07-06T14:01:04;28.10;39.70
26541;DHT22;14206;50.202;10.948;2022-07-06T14:03:31;28.10;38.10
26541;DHT22;14206;50.202;10.948;2022-07-06T14:05:59;28.10;39.30
26541;DHT22;14206;50.202;10.948;2022-07-06T14:08:26;28.00;38.60
26541;DHT22;14206;50.202;10.948;2022-07-06T14:10:53;28.10;39.20
26541;DHT22;14206;50.202;10.948;2022-07-06T14:13:21;28.20;38.20
26541;DHT22;14206;50.202;10.948;2022-07-06T14:15:48;28.10;37.70
26541;DHT22;14206;50.202;10.948;2022-07-06T14:18:15;28.00;38.50
26541;DHT22;14206;50.202;10.948;2022-07-06T14:20:44;28.00;40.00
26541;DHT22;14206;50.202;10.948;2022-07-06T14:23:12;27.80;38.20
26541;DHT22;14206;50.202;10.948;2022-07-06T14:25:39;27.60;37.00
26541;DHT22;14206;50.202;10.948;2022-07-06T14:28:06;27.30;37.80
26541;DHT22;14206;50.202;10.948;2022-07-06T14:30:34;27.00;38.10
26541;DHT22;14206;50.202;10.948;2022-07-06T14:33:04;26.90;41.30
26541;DHT22;14206;50.202;10.948;2022-07-06T14:35:37;27.00;40.70
26541;DHT22;14206;50.202;10.948;2022-07-06T14:38:04;27.00;39.90
26541;DHT22;14206;50.202;10.948;2022-07-06T14:40:32;27.00;40.10
26541;DHT22;14206;50.202;10.948;2022-07-06T14:42:59;27.00;38.70
26541;DHT22;14206;50.202;10.948;2022-07-06T14:45:26;27.00;37.90
26541;DHT22;14206;50.202;10.948;2022-07-06T14:47:53;26.80;39.40
26541;DHT22;14206;50.202;10.948;2022-07-06T14:50:27;26.80;40.90
26541;DHT22;14206;50.202;10.948;2022-07-06T14:52:54;26.80;40.90
26541;DHT22;14206;50.202;10.948;2022-07-06T14:55:21;26.90;40.20
26541;DHT22;14206;50.202;10.948;2022-07-06T14:57:48;26.90;38.90
26541;DHT22;14206;50.202;10.948;2022-07-06T15:00:15;26.90;39.40
26541;DHT22;14206;50.202;10.948;2022-07-06T15:02:42;26.80;38.20
26541;DHT22;14206;50.202;10.948;2022-07-06T15:05:10;26.70;39.90
26541;DHT22;14206;50.202;10.948;2022-07-06T15:07:37;26.70;38.40
26541;DHT22;14206;50.202;10.948;2022-07-06T15:10:04;26.70;40.30
26541;DHT22;14206;50.202;10.948;2022-07-06T15:12:31;26.60;39.70
26541;DHT22;14206;50.202;10.948;2022-07-06T15:14:58;26.40;39.40
26541;DHT22;14206;50.202;10.948;2022-07-06T15:17:25;26.40;39.40
26541;DHT22;14206;50.202;10.948;2022-07-06T15:19:52;26.40;40.60
26541;DHT22;14206;50.202;10.948;2022-07-06T15:22:19;26.40;40.10
26541;DHT22;14206;50.202;10.948;2022-07-06T15:24:48;26.40;39.50
26541;DHT22;14206;50.202;10.948;2022-07-06T15:27:15;26.30;38.60
26541;DHT22;14206;50.202;10.948;2022-07-06T15:29:42;26.10;39.30